Terminal Aerodrome Forecast
Issued by NWS

Home | Current Version | Previous Version | Text Only | Print | Product List | Glossary On
Versions: 1 2 3 4 5 6 7 8 9 10 11 12 13
582
FTUS42 TJSJ 211610 AAA
TAFJSJ
TAF AMD
TJSJ 211610Z 2116/2212 07016G27KT P6SM VCSH BKN025 BKN070
     FM211900 07015G25KT P6SM SCT030
     FM212200 08010KT P6SM SCT030=

USA.gov is the U.S. government's official web portal to all federal, state and local government web resources and services.